Time;durP1;ratioP1;P1;durP2;ratioP2;P2;SDS_P1;SDS_P2;PMS_P1;PMS_P2;Temp;Humidity;BMP_temperature;BMP_pressure;BME280_temperature;BME280_humidity;BME280_pressure;Samples;Min_cycle;Max_cycle;Signal;HPM_P1;HPM_P2
2023/03/15 00:00:41;;;;;;;13.40;1.95;;;2.90;99.90;;;;;;4998817;28;20403;-76
2023/03/15 00:03:07;;;;;;;8.43;1.60;;;2.90;99.90;;;;;;4998453;28;20564;-76
2023/03/15 00:05:33;;;;;;;11.25;2.05;;;2.90;99.90;;;;;;4996372;28;20499;-77
2023/03/15 00:08:00;;;;;;;11.25;1.20;;;2.90;99.90;;;;;;5013982;28;20155;-77
2023/03/15 00:10:27;;;;;;;9.25;1.63;;;3.00;99.90;;;;;;5002047;28;20196;-77
2023/03/15 00:12:52;;;;;;;7.18;1.60;;;3.00;99.90;;;;;;5021342;28;20125;-77
2023/03/15 00:15:20;;;;;;;9.43;1.60;;;3.00;99.90;;;;;;5013209;28;20132;-76
2023/03/15 00:17:46;;;;;;;6.30;1.40;;;3.00;99.90;;;;;;5021822;28;20500;-76
2023/03/15 00:20:13;;;;;;;7.03;1.52;;;2.90;99.90;;;;;;5027529;28;20100;-77
2023/03/15 00:22:40;;;;;;;7.72;1.90;;;2.80;99.90;;;;;;5021388;28;20085;-76
2023/03/15 00:25:06;;;;;;;11.95;1.50;;;2.80;99.90;;;;;;5022599;28;20049;-77
2023/03/15 00:27:32;;;;;;;7.18;1.35;;;2.70;99.90;;;;;;5017595;28;20091;-76
2023/03/15 00:29:58;;;;;;;10.75;1.40;;;2.70;99.90;;;;;;5017516;28;20053;-76
2023/03/15 00:32:23;;;;;;;7.53;1.35;;;2.70;99.90;;;;;;4985538;28;20044;-76
2023/03/15 00:34:53;;;;;;;6.85;1.33;;;2.70;99.90;;;;;;5018885;28;20041;-76
2023/03/15 00:37:19;;;;;;;7.00;1.60;;;2.70;99.90;;;;;;5001711;28;20046;-77
2023/03/15 00:39:48;;;;;;;10.15;1.70;;;2.60;99.90;;;;;;5003521;28;20041;-76
2023/03/15 00:42:14;;;;;;;10.32;1.35;;;2.60;99.90;;;;;;4998506;28;21129;-76
2023/03/15 00:44:44;;;;;;;5.80;1.05;;;2.60;99.90;;;;;;5002120;28;20042;-76
2023/03/15 00:47:11;;;;;;;10.40;2.95;;;2.50;99.90;;;;;;5000654;28;20091;-76
2023/03/15 00:49:37;;;;;;;9.38;1.80;;;2.40;99.90;;;;;;5015731;28;20065;-76
2023/03/15 00:52:04;;;;;;;11.93;1.35;;;2.40;99.90;;;;;;5000263;28;21261;-76
2023/03/15 00:54:32;;;;;;;8.13;1.33;;;2.30;99.90;;;;;;4996346;28;20100;-76
2023/03/15 00:57:02;;;;;;;10.02;1.85;;;2.30;99.90;;;;;;4998609;28;20049;-76
2023/03/15 00:59:33;;;;;;;10.38;1.95;;;2.30;99.90;;;;;;5018852;28;20042;-76
2023/03/15 01:02:00;;;;;;;5.63;1.65;;;2.30;99.90;;;;;;4988481;28;20057;-76
2023/03/15 01:04:25;;;;;;;12.18;1.23;;;2.30;99.90;;;;;;5003579;28;20072;-76
2023/03/15 01:06:51;;;;;;;13.40;1.60;;;2.20;99.90;;;;;;5003351;28;20081;-76
2023/03/15 01:09:17;;;;;;;10.75;2.55;;;2.20;99.90;;;;;;4999606;28;20076;-76
2023/03/15 01:11:42;;;;;;;9.27;1.65;;;2.20;99.90;;;;;;4998276;28;20049;-77
2023/03/15 01:14:08;;;;;;;13.45;1.70;;;2.30;99.90;;;;;;4987565;28;20087;-77
2023/03/15 01:16:34;;;;;;;10.32;1.27;;;2.40;99.90;;;;;;5017401;28;20044;-77
2023/03/15 01:19:00;;;;;;;8.60;1.83;;;2.40;99.90;;;;;;5001871;28;20049;-77
2023/03/15 01:21:26;;;;;;;7.05;2.17;;;2.50;99.90;;;;;;4999492;28;20037;-77
2023/03/15 01:23:52;;;;;;;7.85;1.85;;;2.60;99.90;;;;;;5001232;28;20111;-77
2023/03/15 01:26:18;;;;;;;9.45;1.58;;;2.60;99.90;;;;;;4988919;28;20045;-76
2023/03/15 01:28:44;;;;;;;9.68;1.23;;;2.60;99.90;;;;;;4997845;28;20038;-76
2023/03/15 01:31:20;;;;;;;4.78;1.02;;;2.50;99.90;;;;;;5015372;28;20353;-75
2023/03/15 01:33:46;;;;;;;8.52;1.52;;;2.50;99.90;;;;;;4999655;28;20103;-76
2023/03/15 01:36:12;;;;;;;4.63;1.10;;;2.50;99.90;;;;;;5013882;28;20048;-77
2023/03/15 01:38:38;;;;;;;4.22;1.00;;;2.50;99.90;;;;;;5008156;28;20465;-76
2023/03/15 01:41:04;;;;;;;9.90;1.52;;;2.50;99.90;;;;;;4986778;28;20041;-76
2023/03/15 01:43:31;;;;;;;6.15;1.65;;;2.50;99.90;;;;;;5008205;28;20048;-76
2023/03/15 01:46:18;;;;;;;6.50;1.05;;;2.50;99.90;;;;;;4996962;28;20058;-76
2023/03/15 01:49:12;;;;;;;7.75;1.40;;;2.50;99.90;;;;;;5016239;28;20051;-76
2023/03/15 01:51:46;;;;;;;6.00;1.13;;;2.50;99.90;;;;;;5019266;28;20045;-76
2023/03/15 01:54:20;;;;;;;7.97;1.40;;;2.50;99.90;;;;;;5005954;28;20488;-76
2023/03/15 01:57:03;;;;;;;6.88;1.58;;;2.50;99.90;;;;;;5002398;28;20325;-77
2023/03/15 01:59:35;;;;;;;7.43;1.00;;;2.50;99.90;;;;;;5018625;28;20064;-77
2023/03/15 02:02:03;;;;;;;9.75;1.05;;;2.50;99.90;;;;;;5020264;28;20041;-78
2023/03/15 02:04:45;;;;;;;8.77;1.13;;;2.50;99.90;;;;;;5024956;28;20399;-76
2023/03/15 02:07:13;;;;;;;4.75;0.95;;;2.40;99.90;;;;;;5018359;28;20750;-76
2023/03/15 02:10:07;;;;;;;5.32;1.02;;;2.40;99.90;;;;;;5015092;28;21499;-75
2023/03/15 02:12:35;;;;;;;;;;;2.30;99.90;;;;;;4998966;28;20244;-76
2023/03/15 02:15:04;;;;;;;9.43;1.08;;;2.20;99.90;;;;;;5016803;28;20000;-77
2023/03/15 02:17:42;;;;;;;6.13;1.10;;;2.20;99.90;;;;;;5019280;28;20129;-76
2023/03/15 02:20:26;;;;;;;10.90;2.30;;;2.10;99.90;;;;;;5018491;28;20057;-76
2023/03/15 02:23:07;;;;;;;6.22;1.00;;;2.00;99.90;;;;;;4998285;28;20137;-76
2023/03/15 02:25:38;;;;;;;7.55;1.27;;;2.00;99.90;;;;;;5015567;28;20049;-76
2023/03/15 02:28:07;;;;;;;5.32;1.45;;;2.00;99.90;;;;;;4991594;28;20046;-76
2023/03/15 02:30:34;;;;;;;4.80;1.17;;;2.00;99.90;;;;;;5011352;28;20070;-76
2023/03/15 02:33:01;;;;;;;6.55;0.98;;;1.90;99.90;;;;;;5020152;28;20064;-76
2023/03/15 02:35:30;;;;;;;9.45;1.40;;;1.90;99.90;;;;;;5002655;28;20767;-76
2023/03/15 02:37:57;;;;;;;7.65;1.73;;;1.90;99.90;;;;;;5019211;28;20058;-76
2023/03/15 02:40:26;;;;;;;10.05;1.10;;;1.80;99.90;;;;;;5000011;28;20156;-76
2023/03/15 02:43:05;;;;;;;10.07;1.45;;;1.80;99.90;;;;;;4984619;28;20044;-76
2023/03/15 02:45:32;;;;;;;10.38;1.40;;;1.90;99.90;;;;;;4999429;28;20038;-77
2023/03/15 02:47:59;;;;;;;3.00;0.90;;;1.90;99.90;;;;;;5016325;28;20128;-77
2023/03/15 02:50:25;;;;;;;10.00;1.13;;;1.90;99.90;;;;;;5021061;28;20042;-77
2023/03/15 02:52:51;;;;;;;10.02;1.92;;;1.90;99.90;;;;;;5027867;28;20662;-76
2023/03/15 02:55:18;;;;;;;6.15;1.10;;;1.90;99.90;;;;;;5003866;28;20405;-76
2023/03/15 02:57:44;;;;;;;7.22;1.30;;;1.90;99.90;;;;;;5019887;28;20566;-77
2023/03/15 03:00:13;;;;;;;6.32;1.63;;;1.90;99.90;;;;;;5027982;28;20052;-76
2023/03/15 03:02:45;;;;;;;6.03;1.33;;;1.90;99.90;;;;;;5003273;28;20045;-76
2023/03/15 03:05:12;;;;;;;6.88;1.30;;;1.90;99.90;;;;;;5019753;28;20452;-76
2023/03/15 03:07:38;;;;;;;8.68;1.40;;;1.90;99.90;;;;;;5020058;28;20374;-76
2023/03/15 03:10:05;;;;;;;12.77;1.40;;;1.80;99.90;;;;;;5029955;28;20042;-76
2023/03/15 03:12:31;;;;;;;15.52;1.40;;;1.90;99.90;;;;;;5021740;28;20045;-76
2023/03/15 03:14:57;;;;;;;8.18;1.70;;;1.90;99.90;;;;;;4987227;28;20052;-76
2023/03/15 03:17:23;;;;;;;5.07;1.27;;;1.80;99.90;;;;;;5005566;28;21229;-76
2023/03/15 03:19:50;;;;;;;3.97;1.23;;;1.80;99.90;;;;;;5009804;28;20188;-77
2023/03/15 03:22:16;;;;;;;8.07;1.27;;;1.80;99.90;;;;;;5023216;28;20110;-77
2023/03/15 03:24:44;;;;;;;11.52;1.55;;;1.70;99.90;;;;;;5026204;28;20095;-76
2023/03/15 03:27:13;;;;;;;6.65;1.98;;;1.70;99.90;;;;;;5018004;28;20522;-77
2023/03/15 03:29:40;;;;;;;7.70;2.00;;;1.70;99.90;;;;;;5021262;28;20385;-76
2023/03/15 03:32:06;;;;;;;9.15;1.63;;;1.60;99.90;;;;;;5016499;28;20034;-76
2023/03/15 03:34:31;;;;;;;6.20;1.50;;;1.50;99.90;;;;;;5002370;28;20053;-76
2023/03/15 03:36:57;;;;;;;12.02;2.00;;;1.50;99.90;;;;;;5007856;28;20049;-77
2023/03/15 03:39:22;;;;;;;10.07;1.60;;;1.40;99.90;;;;;;5008730;28;20124;-77
2023/03/15 03:41:48;;;;;;;13.18;1.35;;;1.30;99.90;;;;;;4994603;28;20048;-76
2023/03/15 03:44:14;;;;;;;12.07;1.42;;;1.30;99.90;;;;;;5001465;28;20054;-77
2023/03/15 03:46:40;;;;;;;5.05;1.10;;;1.30;99.90;;;;;;5020649;28;20531;-76
2023/03/15 03:49:06;;;;;;;10.40;1.02;;;1.30;99.90;;;;;;5005217;28;20034;-76
2023/03/15 03:51:33;;;;;;;6.75;1.30;;;1.30;99.90;;;;;;5008537;28;20337;-76
2023/03/15 03:54:00;;;;;;;5.45;1.10;;;1.30;99.90;;;;;;4989394;28;20061;-76
2023/03/15 03:56:25;;;;;;;10.63;1.50;;;1.30;99.90;;;;;;4984608;28;20042;-76
2023/03/15 03:58:51;;;;;;;7.47;1.55;;;1.30;99.90;;;;;;5016710;28;20116;-76
2023/03/15 04:01:17;;;;;;;5.30;0.93;;;1.20;99.90;;;;;;5005298;28;20394;-76
2023/03/15 04:03:42;;;;;;;6.47;1.35;;;1.30;99.90;;;;;;5006268;28;20524;-76
2023/03/15 04:06:08;;;;;;;6.97;2.13;;;1.20;99.90;;;;;;4990236;28;20045;-77
2023/03/15 04:08:34;;;;;;;5.43;1.20;;;1.20;99.90;;;;;;5013652;28;20689;-76
2023/03/15 04:11:02;;;;;;;4.68;1.23;;;1.10;99.90;;;;;;5002514;28;20076;-76
2023/03/15 04:13:28;;;;;;;7.65;1.20;;;1.10;99.90;;;;;;5001090;28;20039;-76
2023/03/15 04:15:57;;;;;;;7.25;1.40;;;1.10;99.90;;;;;;5020619;28;20060;-76
2023/03/15 04:18:23;;;;;;;11.25;1.85;;;1.10;99.90;;;;;;4984112;28;20048;-76
2023/03/15 04:20:53;;;;;;;8.13;1.35;;;1.10;99.90;;;;;;5020549;28;20050;-76
2023/03/15 04:23:20;;;;;;;9.48;1.63;;;1.10;99.90;;;;;;5008940;28;20042;-76
2023/03/15 04:25:50;;;;;;;11.77;1.73;;;1.10;99.90;;;;;;5003786;28;20646;-76
2023/03/15 04:28:17;;;;;;;7.72;2.08;;;1.10;99.90;;;;;;4997428;28;20312;-76
2023/03/15 04:30:43;;;;;;;8.38;2.80;;;1.20;99.90;;;;;;5019149;28;20045;-76
2023/03/15 04:33:09;;;;;;;13.50;1.58;;;1.20;99.90;;;;;;5013318;28;20056;-76
2023/03/15 04:35:37;;;;;;;14.75;2.85;;;1.30;99.90;;;;;;5005413;28;20041;-77
2023/03/15 04:38:04;;;;;;;6.07;1.60;;;1.20;99.90;;;;;;5006651;28;20508;-76
2023/03/15 04:40:33;;;;;;;8.23;1.00;;;1.30;99.90;;;;;;5001378;28;20122;-76
2023/03/15 04:43:00;;;;;;;9.02;1.27;;;1.30;99.90;;;;;;5016765;28;20475;-77
2023/03/15 04:45:27;;;;;;;6.07;1.45;;;1.30;99.90;;;;;;5009697;28;20805;-76
2023/03/15 04:47:53;;;;;;;3.42;1.00;;;1.40;99.90;;;;;;4981488;28;20054;-76
2023/03/15 04:50:19;;;;;;;6.65;1.38;;;1.30;99.90;;;;;;5021078;28;20439;-76
2023/03/15 04:52:45;;;;;;;3.50;1.05;;;1.30;99.90;;;;;;5009103;28;22001;-76
2023/03/15 04:55:11;;;;;;;7.90;1.60;;;1.30;99.90;;;;;;5000757;28;20052;-76
2023/03/15 04:57:38;;;;;;;6.65;1.13;;;1.30;99.90;;;;;;4982038;28;20493;-76
2023/03/15 05:00:06;;;;;;;6.95;1.17;;;1.20;99.90;;;;;;5000041;28;20044;-76
2023/03/15 05:02:33;;;;;;;7.20;1.75;;;1.30;99.90;;;;;;5016180;28;20497;-77
2023/03/15 05:04:58;;;;;;;4.30;1.33;;;1.30;99.90;;;;;;5020630;28;20103;-75
2023/03/15 05:07:24;;;;;;;8.20;1.17;;;1.30;99.90;;;;;;4981579;28;20037;-75
2023/03/15 05:09:49;;;;;;;3.30;1.00;;;1.30;99.90;;;;;;5024870;28;20049;-75
2023/03/15 05:12:16;;;;;;;6.78;1.30;;;1.20;99.90;;;;;;5001620;28;20049;-75
2023/03/15 05:14:41;;;;;;;6.18;1.83;;;1.30;99.90;;;;;;4998866;28;20048;-75
2023/03/15 05:17:07;;;;;;;8.70;1.20;;;1.30;99.90;;;;;;5023329;28;20041;-76
2023/03/15 05:19:33;;;;;;;6.68;1.23;;;1.30;99.90;;;;;;4999889;28;20505;-75
2023/03/15 05:22:02;;;;;;;8.73;1.40;;;1.30;99.90;;;;;;5022503;28;20041;-75
2023/03/15 05:24:29;;;;;;;9.90;1.58;;;1.30;99.90;;;;;;4991722;28;20088;-75
2023/03/15 05:26:54;;;;;;;4.88;1.15;;;1.40;99.90;;;;;;5004002;28;20041;-76
2023/03/15 05:29:21;;;;;;;15.05;1.23;;;1.30;99.90;;;;;;4999916;28;20063;-75
2023/03/15 05:31:47;;;;;;;12.20;2.90;;;1.30;99.90;;;;;;5017453;28;20131;-76
2023/03/15 05:34:13;;;;;;;8.25;1.27;;;1.20;99.90;;;;;;5014398;28;20416;-75
2023/03/15 05:36:40;;;;;;;7.45;1.42;;;1.30;99.90;;;;;;5003718;28;20057;-75
2023/03/15 05:39:07;;;;;;;9.98;1.50;;;1.20;99.90;;;;;;5014757;28;20469;-76
2023/03/15 05:41:33;;;;;;;8.80;1.17;;;1.20;99.90;;;;;;5015230;28;20343;-75
2023/03/15 05:43:58;;;;;;;10.88;1.88;;;1.10;99.90;;;;;;4998057;28;20287;-74
2023/03/15 05:46:24;;;;;;;12.77;2.35;;;1.20;99.90;;;;;;4977190;28;20058;-75
2023/03/15 05:48:50;;;;;;;10.48;1.50;;;1.10;99.90;;;;;;5019592;28;20052;-75
2023/03/15 05:51:16;;;;;;;9.10;1.80;;;1.10;99.90;;;;;;5005434;28;20045;-77
2023/03/15 05:53:41;;;;;;;8.10;1.30;;;1.10;99.90;;;;;;5021781;28;20041;-73
2023/03/15 05:56:08;;;;;;;7.00;1.80;;;1.00;99.90;;;;;;4998514;28;20064;-75
2023/03/15 05:58:33;;;;;;;12.32;1.73;;;1.00;99.90;;;;;;5020199;28;20046;-75
2023/03/15 06:01:00;;;;;;;11.45;1.80;;;1.00;99.90;;;;;;5011032;28;20155;-76
2023/03/15 06:03:27;;;;;;;10.02;1.40;;;0.90;99.90;;;;;;5007401;28;20060;-77
2023/03/15 06:05:53;;;;;;;3.65;1.20;;;0.90;99.90;;;;;;5014283;28;20188;-75
2023/03/15 06:08:18;;;;;;;6.20;1.50;;;1.00;99.90;;;;;;4999504;28;20125;-74
2023/03/15 06:10:44;;;;;;;6.30;1.20;;;0.90;99.90;;;;;;5000703;28;20049;-75
2023/03/15 06:13:10;;;;;;;5.95;1.40;;;0.90;99.90;;;;;;4999065;28;20041;-74
2023/03/15 06:15:35;;;;;;;7.30;1.40;;;0.90;99.90;;;;;;5003550;28;20535;-76
2023/03/15 06:18:01;;;;;;;7.85;1.70;;;0.80;99.90;;;;;;4998224;28;20516;-74
2023/03/15 06:20:27;;;;;;;10.95;1.33;;;0.90;99.90;;;;;;5018072;28;20451;-75
2023/03/15 06:22:53;;;;;;;15.07;2.10;;;0.90;99.90;;;;;;5024171;28;20048;-75
2023/03/15 06:25:18;;;;;;;11.50;2.10;;;0.90;99.90;;;;;;5020374;28;20048;-76
2023/03/15 06:27:44;;;;;;;18.95;2.80;;;1.00;99.90;;;;;;5005030;28;20419;-75
2023/03/15 06:30:10;;;;;;;7.68;1.70;;;1.00;99.90;;;;;;4993410;28;20069;-74
2023/03/15 06:32:36;;;;;;;6.20;1.70;;;1.00;99.90;;;;;;5022020;28;20042;-74
2023/03/15 06:35:03;;;;;;;12.52;1.98;;;1.00;99.90;;;;;;5017981;28;20060;-73
2023/03/15 06:37:29;;;;;;;8.90;1.80;;;1.00;99.90;;;;;;5002961;28;20090;-73
2023/03/15 06:39:55;;;;;;;14.15;2.25;;;1.00;99.90;;;;;;5007061;28;20096;-74
2023/03/15 06:42:21;;;;;;;10.52;1.67;;;1.00;99.90;;;;;;5005923;28;20783;-74
2023/03/15 06:44:46;;;;;;;8.60;1.67;;;1.10;99.90;;;;;;5005341;28;20496;-74
2023/03/15 06:47:12;;;;;;;9.93;2.33;;;1.00;99.90;;;;;;5023792;28;20053;-75
2023/03/15 06:49:38;;;;;;;8.48;1.60;;;1.10;99.90;;;;;;5023414;28;20061;-74
2023/03/15 06:52:04;;;;;;;9.70;1.67;;;1.00;99.90;;;;;;5002308;28;20038;-75
2023/03/15 06:54:30;;;;;;;7.88;1.60;;;1.00;99.90;;;;;;4992841;28;20137;-77
2023/03/15 06:56:56;;;;;;;12.60;1.90;;;1.20;99.90;;;;;;4983240;28;20550;-77
2023/03/15 06:59:22;;;;;;;10.45;1.73;;;1.20;99.90;;;;;;5024654;28;20045;-77
2023/03/15 07:01:48;;;;;;;9.07;3.15;;;1.30;99.90;;;;;;5001321;28;20485;-77
2023/03/15 07:04:14;;;;;;;8.02;2.35;;;1.50;99.90;;;;;;4998082;28;20054;-77
2023/03/15 07:06:39;;;;;;;10.93;1.83;;;1.70;99.90;;;;;;5002414;28;20053;-77
2023/03/15 07:09:05;;;;;;;8.98;1.92;;;1.80;99.90;;;;;;4999197;28;20563;-78
2023/03/15 07:11:31;;;;;;;3.45;1.10;;;1.90;99.90;;;;;;5018896;28;20061;-78
2023/03/15 07:13:57;;;;;;;3.42;1.17;;;2.10;99.90;;;;;;5018720;28;20555;-77
2023/03/15 07:16:24;;;;;;;3.60;0.98;;;2.30;99.90;;;;;;5023574;28;20053;-80
2023/03/15 07:18:49;;;;;;;9.65;1.40;;;2.30;99.90;;;;;;5001331;28;20133;-78
2023/03/15 07:21:15;;;;;;;5.53;1.20;;;2.40;99.90;;;;;;5003289;28;20140;-77
2023/03/15 07:23:41;;;;;;;6.68;1.75;;;2.50;99.90;;;;;;5020998;28;20140;-77
2023/03/15 07:26:07;;;;;;;7.40;1.55;;;2.60;99.90;;;;;;5020210;28;20049;-77
2023/03/15 07:28:33;;;;;;;2.92;0.95;;;2.50;99.90;;;;;;5016712;28;20057;-76
2023/03/15 07:31:01;;;;;;;3.88;1.10;;;2.60;99.90;;;;;;5017194;28;20041;-76
2023/03/15 07:33:29;;;;;;;9.07;3.25;;;2.70;99.90;;;;;;4982078;28;20523;-76
2023/03/15 07:35:55;;;;;;;4.97;1.52;;;2.80;99.90;;;;;;5019842;28;20049;-76
2023/03/15 07:38:22;;;;;;;4.95;1.10;;;2.90;99.90;;;;;;5005244;28;20089;-76
2023/03/15 07:40:48;;;;;;;4.93;1.15;;;3.00;99.90;;;;;;5021841;28;20041;-75
2023/03/15 07:43:14;;;;;;;5.85;1.23;;;3.10;99.90;;;;;;5002891;28;20050;-76
2023/03/15 07:45:39;;;;;;;6.28;0.93;;;3.20;99.90;;;;;;5025498;28;20049;-76
2023/03/15 07:48:05;;;;;;;4.55;1.13;;;3.20;99.90;;;;;;5026785;28;20052;-76
2023/03/15 07:50:31;;;;;;;5.22;1.38;;;3.30;99.90;;;;;;5013123;28;20040;-76
2023/03/15 07:52:57;;;;;;;5.70;1.00;;;3.40;99.90;;;;;;5024807;28;20044;-76
2023/03/15 07:55:24;;;;;;;5.93;1.00;;;3.40;99.90;;;;;;5001357;28;20073;-76
2023/03/15 07:57:50;;;;;;;3.90;1.00;;;3.50;99.90;;;;;;5017017;28;20125;-76
2023/03/15 08:00:16;;;;;;;7.38;2.83;;;3.60;99.90;;;;;;5019809;28;20145;-76
2023/03/15 08:02:41;;;;;;;6.75;1.95;;;3.60;99.90;;;;;;4999753;28;20053;-76
2023/03/15 08:05:08;;;;;;;4.43;0.95;;;3.70;99.90;;;;;;5014780;28;20151;-76
2023/03/15 08:07:35;;;;;;;5.20;1.20;;;3.70;99.90;;;;;;5003243;28;20049;-76
2023/03/15 08:10:02;;;;;;;6.45;0.93;;;3.80;99.90;;;;;;5018316;28;20041;-75
2023/03/15 08:12:29;;;;;;;4.05;1.67;;;3.90;99.90;;;;;;5024275;28;20037;-76
2023/03/15 08:14:54;;;;;;;3.53;0.73;;;4.00;99.90;;;;;;4986057;28;20440;-75
2023/03/15 08:17:20;;;;;;;4.30;0.90;;;4.00;99.90;;;;;;5013589;28;20055;-76
2023/03/15 08:19:46;;;;;;;6.75;1.30;;;4.10;99.90;;;;;;5019527;28;20046;-76
2023/03/15 08:22:11;;;;;;;1.40;0.70;;;4.10;99.90;;;;;;5019211;28;20045;-77
2023/03/15 08:24:38;;;;;;;4.68;1.10;;;4.20;99.90;;;;;;5029612;28;20133;-77
2023/03/15 08:27:03;;;;;;;2.78;0.60;;;4.30;99.90;;;;;;5027368;28;20038;-78
2023/03/15 08:29:30;;;;;;;6.65;0.80;;;4.40;99.90;;;;;;4987020;28;20342;-78
2023/03/15 08:31:56;;;;;;;7.60;1.08;;;4.40;99.90;;;;;;4997169;28;20037;-78
2023/03/15 08:34:22;;;;;;;5.05;0.90;;;4.50;99.90;;;;;;5010831;28;20045;-77
2023/03/15 08:36:48;;;;;;;3.42;0.93;;;4.60;99.90;;;;;;5004773;28;20405;-77
2023/03/15 08:39:14;;;;;;;6.28;1.00;;;4.70;99.90;;;;;;5025221;28;20045;-79
2023/03/15 08:41:40;;;;;;;5.28;0.93;;;4.70;99.90;;;;;;5015681;28;20045;-74
2023/03/15 08:44:06;;;;;;;4.57;1.40;;;4.80;99.90;;;;;;5014352;28;20069;-78
2023/03/15 08:46:32;;;;;;;6.50;1.15;;;4.80;99.90;;;;;;5016086;28;20056;-77
2023/03/15 08:48:58;;;;;;;4.35;0.70;;;4.90;99.90;;;;;;5002553;28;20049;-77
2023/03/15 08:51:25;;;;;;;8.55;1.20;;;5.00;99.90;;;;;;5017539;28;20118;-77
2023/03/15 08:53:52;;;;;;;6.72;1.27;;;5.10;99.90;;;;;;4995158;28;20045;-77
2023/03/15 08:56:18;;;;;;;7.88;2.17;;;5.20;99.90;;;;;;4995589;28;20135;-77
2023/03/15 08:58:43;;;;;;;6.97;1.42;;;5.30;99.90;;;;;;5014649;28;20136;-78
2023/03/15 09:01:14;;;;;;;4.60;1.17;;;5.40;99.90;;;;;;5023408;28;20048;-77
2023/03/15 09:03:41;;;;;;;5.93;1.50;;;5.40;99.90;;;;;;5001719;28;20029;-78
2023/03/15 09:06:08;;;;;;;6.10;1.17;;;5.40;99.90;;;;;;5002995;28;20033;-78
2023/03/15 09:08:34;;;;;;;5.63;0.98;;;5.50;99.90;;;;;;5007090;28;20509;-77
2023/03/15 09:11:00;;;;;;;8.40;1.15;;;5.50;99.90;;;;;;5007495;28;20117;-80
2023/03/15 09:13:27;;;;;;;5.72;1.23;;;5.60;99.90;;;;;;5007392;28;20041;-78
2023/03/15 09:15:53;;;;;;;5.93;1.35;;;5.60;99.90;;;;;;5000433;28;20049;-78
2023/03/15 09:18:20;;;;;;;8.05;1.15;;;5.70;99.90;;;;;;4988791;28;20168;-79
2023/03/15 09:20:46;;;;;;;6.78;1.33;;;5.80;99.90;;;;;;5001577;28;20053;-79
2023/03/15 09:23:12;;;;;;;11.25;2.38;;;5.80;99.90;;;;;;5001933;28;20091;-78
2023/03/15 09:25:38;;;;;;;6.13;2.00;;;5.90;99.90;;;;;;5000734;28;20065;-78
2023/03/15 09:28:05;;;;;;;7.95;1.70;;;6.00;99.90;;;;;;5014357;28;20129;-78
2023/03/15 09:30:32;;;;;;;11.98;2.85;;;6.10;99.90;;;;;;5015135;28;20131;-78
2023/03/15 09:32:57;;;;;;;11.40;2.25;;;6.20;99.90;;;;;;5003240;28;20041;-79
2023/03/15 09:35:23;;;;;;;11.38;1.80;;;6.30;99.90;;;;;;5023094;28;20044;-78
2023/03/15 09:37:49;;;;;;;9.93;2.13;;;6.30;99.90;;;;;;5003683;28;20536;-78
2023/03/15 09:40:31;;;;;;;7.13;1.35;;;6.40;99.90;;;;;;4999736;28;21520;-78
2023/03/15 09:43:00;;;;;;;15.30;2.25;;;6.50;99.90;;;;;;5014863;28;20092;-79
2023/03/15 09:45:39;;;;;;;7.10;2.00;;;6.40;99.90;;;;;;4999963;28;20046;-77
2023/03/15 09:48:22;;;;;;;11.93;1.92;;;6.20;99.90;;;;;;4979926;28;20065;-77
2023/03/15 09:51:11;;;;;;;10.52;2.38;;;6.10;99.90;;;;;;5021073;28;20057;-78
2023/03/15 09:53:43;;;;;;;6.57;1.60;;;6.00;99.90;;;;;;4976369;28;20071;-77
2023/03/15 09:56:31;;;;;;;13.80;2.67;;;5.90;99.90;;;;;;5012747;28;20045;-74
2023/03/15 09:59:00;;;;;;;9.55;2.40;;;5.90;99.90;;;;;;5009587;28;20437;-73
2023/03/15 10:01:39;;;;;;;7.95;2.22;;;6.10;99.90;;;;;;4988179;28;20561;-73
2023/03/15 10:04:41;;;;;;;13.57;2.22;;;6.20;99.90;;;;;;5017856;28;20404;-72
2023/03/15 10:07:13;;;;;;;4.13;0.90;;;6.50;99.90;;;;;;5020558;28;20068;-73
2023/03/15 10:09:39;;;;;;;8.43;1.83;;;6.70;99.90;;;;;;5020191;28;20088;-73
2023/03/15 10:12:14;;;;;;;10.00;1.58;;;6.80;99.90;;;;;;4982217;28;20045;-73
2023/03/15 10:15:05;;;;;;;9.23;1.95;;;6.80;99.90;;;;;;5014088;28;20495;-73
2023/03/15 10:17:40;;;;;;;8.20;1.70;;;6.80;99.90;;;;;;5001749;28;20049;-73
2023/03/15 10:20:17;;;;;;;9.93;1.77;;;6.80;99.90;;;;;;5010485;28;20107;-73
2023/03/15 10:23:20;;;;;;;12.13;2.22;;;6.80;99.90;;;;;;5019244;28;20042;-73
2023/03/15 10:25:49;;;;;;;5.75;1.25;;;6.80;99.90;;;;;;5000419;28;20051;-73
2023/03/15 10:28:28;;;;;;;5.80;2.08;;;6.70;99.90;;;;;;4987264;28;20464;-72
2023/03/15 10:30:59;;;;;;;9.27;1.80;;;6.90;99.90;;;;;;5000228;28;20543;-73
2023/03/15 10:33:34;;;;;;;10.65;1.38;;;7.00;99.90;;;;;;5020722;28;20048;-73
2023/03/15 10:36:03;;;;;;;10.95;1.67;;;7.20;99.90;;;;;;5019218;28;21628;-73
2023/03/15 10:38:31;;;;;;;8.00;1.45;;;7.40;99.90;;;;;;5017900;28;20076;-73
2023/03/15 10:40:58;;;;;;;9.77;1.73;;;7.60;99.90;;;;;;5000320;28;20092;-73
2023/03/15 10:43:33;;;;;;;9.20;2.03;;;7.70;99.90;;;;;;5005613;28;20041;-73
2023/03/15 10:46:02;;;;;;;3.33;1.30;;;7.80;99.90;;;;;;5003887;28;20060;-73
2023/03/15 10:48:30;;;;;;;8.25;1.50;;;7.90;99.90;;;;;;5016677;28;20058;-73
2023/03/15 10:50:56;;;;;;;6.63;1.60;;;8.00;99.90;;;;;;5015092;28;20045;-73
2023/03/15 10:53:24;;;;;;;7.15;1.40;;;8.00;99.90;;;;;;5002765;28;20093;-73
2023/03/15 10:56:00;;;;;;;10.63;1.50;;;7.90;99.90;;;;;;5003217;28;20034;-73
2023/03/15 10:58:33;;;;;;;7.47;1.70;;;8.00;99.90;;;;;;5002110;28;20076;-73
2023/03/15 11:01:10;;;;;;;12.15;2.10;;;7.90;99.90;;;;;;5023115;28;20045;-73
2023/03/15 11:03:37;;;;;;;8.73;1.30;;;7.90;99.90;;;;;;5019025;28;20361;-75
2023/03/15 11:06:24;;;;;;;12.93;1.77;;;8.00;99.90;;;;;;5020873;28;20056;-76
2023/03/15 11:08:50;;;;;;;7.68;1.85;;;7.90;99.90;;;;;;5017320;28;20370;-76
2023/03/15 11:11:15;;;;;;;8.10;1.95;;;7.90;99.90;;;;;;4988018;28;20063;-76
2023/03/15 11:13:53;;;;;;;12.68;1.48;;;7.90;99.90;;;;;;5023279;28;20045;-76
2023/03/15 11:16:21;;;;;;;7.18;1.95;;;7.80;99.90;;;;;;4996931;28;20048;-76
2023/03/15 11:18:56;;;;;;;5.78;1.27;;;7.80;99.90;;;;;;4986478;28;20056;-76
2023/03/15 11:21:32;;;;;;;9.23;1.70;;;7.70;99.90;;;;;;5024135;28;20052;-76
2023/03/15 11:24:00;;;;;;;6.65;1.38;;;7.60;99.90;;;;;;5007687;28;20100;-76
2023/03/15 11:26:28;;;;;;;7.85;1.67;;;7.70;99.90;;;;;;4987961;28;20927;-75
2023/03/15 11:29:02;;;;;;;7.80;1.50;;;7.90;99.90;;;;;;5026493;28;20193;-74
2023/03/15 11:31:30;;;;;;;10.82;2.38;;;8.00;99.90;;;;;;4997637;28;20461;-75
2023/03/15 11:34:17;;;;;;;11.25;1.60;;;8.00;99.90;;;;;;5001556;28;20041;-75
2023/03/15 11:36:45;;;;;;;8.23;1.95;;;8.00;99.90;;;;;;4984925;28;20405;-75
2023/03/15 11:39:25;;;;;;;8.02;1.98;;;8.10;99.90;;;;;;4990715;28;20686;-75
2023/03/15 11:42:01;;;;;;;7.60;1.40;;;8.20;99.90;;;;;;4997256;28;20108;-75
2023/03/15 11:44:44;;;;;;;6.80;1.55;;;8.20;99.90;;;;;;5000079;28;20059;-75
2023/03/15 11:47:25;;;;;;;9.70;1.63;;;8.30;99.90;;;;;;5000645;28;20415;-75
2023/03/15 11:49:53;;;;;;;7.07;1.73;;;8.30;99.90;;;;;;5000965;28;20042;-74
2023/03/15 11:52:22;;;;;;;9.45;1.70;;;8.30;99.90;;;;;;5001960;28;20043;-75
2023/03/15 11:54:48;;;;;;;6.13;1.48;;;8.30;99.90;;;;;;5006287;28;20513;-75
2023/03/15 11:57:46;;;;;;;10.65;1.85;;;8.30;99.90;;;;;;5005447;28;20479;-71
2023/03/15 12:00:38;;;;;;;9.48;2.28;;;8.30;99.90;;;;;;4992800;28;20045;-75
2023/03/15 12:03:34;;;;;;;7.38;1.48;;;8.40;99.90;;;;;;4997245;28;20038;-75
2023/03/15 12:06:25;;;;;;;6.07;1.48;;;8.50;99.90;;;;;;5014741;28;20050;-74
2023/03/15 12:08:53;;;;;;;9.82;1.77;;;8.40;99.90;;;;;;4986873;28;20068;-74
2023/03/15 12:11:19;;;;;;;10.77;1.90;;;8.50;99.90;;;;;;5027254;28;20043;-75
2023/03/15 12:13:57;;;;;;;6.55;1.30;;;8.60;99.90;;;;;;4996362;28;20128;-75
2023/03/15 12:16:25;;;;;;;6.45;1.42;;;8.60;99.90;;;;;;5032964;28;20565;-75
2023/03/15 12:18:56;;;;;;;7.07;1.77;;;8.60;99.90;;;;;;5011602;28;20033;-75
2023/03/15 12:21:31;;;;;;;7.47;1.60;;;8.60;99.90;;;;;;5011929;28;20083;-75
2023/03/15 12:24:04;;;;;;;9.75;1.52;;;8.60;99.90;;;;;;5023344;28;20409;-75
2023/03/15 12:26:48;;;;;;;4.50;1.27;;;8.60;99.90;;;;;;5026916;28;20050;-75
2023/03/15 12:29:21;;;;;;;7.25;1.48;;;8.60;99.90;;;;;;4979058;28;20040;-76
2023/03/15 12:32:01;;;;;;;12.15;1.65;;;8.60;99.90;;;;;;5016289;28;20048;-75
2023/03/15 12:34:41;;;;;;;8.48;1.60;;;8.70;99.90;;;;;;5010189;28;20173;-75
2023/03/15 12:37:13;;;;;;;8.25;1.60;;;8.70;99.90;;;;;;5003145;28;20041;-75
2023/03/15 12:39:50;;;;;;;6.93;1.45;;;8.70;99.90;;;;;;5019217;28;20038;-75
2023/03/15 12:42:28;;;;;;;6.22;1.50;;;8.70;99.90;;;;;;4995432;28;20057;-74
2023/03/15 12:44:53;;;;;;;11.15;1.50;;;8.70;99.90;;;;;;5018448;28;20057;-76
2023/03/15 12:47:19;;;;;;;6.88;1.40;;;8.80;99.90;;;;;;5009301;28;20131;-75
2023/03/15 12:49:45;;;;;;;6.78;1.83;;;8.80;99.90;;;;;;5027636;28;20054;-75
2023/03/15 12:52:12;;;;;;;9.63;1.85;;;8.70;99.90;;;;;;5011407;28;20084;-74
2023/03/15 12:54:48;;;;;;;9.10;1.83;;;8.80;99.90;;;;;;5005552;28;20445;-75
2023/03/15 12:57:29;;;;;;;7.32;1.42;;;8.80;99.90;;;;;;5020976;28;20121;-75
2023/03/15 13:00:05;;;;;;;10.10;1.85;;;8.80;99.90;;;;;;4994030;28;20037;-75
2023/03/15 13:02:36;;;;;;;5.28;1.33;;;8.80;99.90;;;;;;5026726;28;20443;-73
2023/03/15 13:05:17;;;;;;;4.80;1.52;;;8.90;99.90;;;;;;5010386;28;20045;-75